Time;durP1;ratioP1;P1;durP2;ratioP2;P2;SDS_P1;SDS_P2;PMS_P1;PMS_P2;Temp;Humidity;BMP_temperature;BMP_pressure;BME280_temperature;BME280_humidity;BME280_pressure;Samples;Min_cycle;Max_cycle;Signal;HPM_P1;HPM_P2
2022/07/29 00:00:20;;;;;;;8.35;6.00;;;;;;;21.55;63.24;98899.50;5202181;28;20530;-71
2022/07/29 00:03:11;;;;;;;9.75;6.03;;;;;;;21.53;63.99;98913.22;5188892;28;20056;-72
2022/07/29 00:06:02;;;;;;;9.80;6.18;;;;;;;21.60;63.35;98909.66;5216708;28;20072;-72
2022/07/29 00:08:52;;;;;;;9.30;6.40;;;;;;;21.54;63.58;98903.25;5203565;28;20053;-72
2022/07/29 00:11:43;;;;;;;6.88;6.05;;;;;;;21.43;64.05;98901.25;5203218;28;20463;-73
2022/07/29 00:14:33;;;;;;;8.45;5.93;;;;;;;21.26;64.27;98898.22;5203437;28;20167;-72
2022/07/29 00:17:24;;;;;;;9.25;6.22;;;;;;;21.26;63.76;98892.81;5203050;28;20064;-73
2022/07/29 00:20:14;;;;;;;7.45;5.75;;;;;;;21.23;63.57;98890.56;5202745;28;20151;-72
2022/07/29 00:23:04;;;;;;;8.80;6.70;;;;;;;20.96;64.18;98879.88;5203124;28;20056;-72
2022/07/29 00:25:54;;;;;;;9.27;6.00;;;;;;;20.96;64.52;98882.59;5203760;28;20059;-72
2022/07/29 00:28:44;;;;;;;8.75;6.05;;;;;;;20.99;64.33;98882.16;5203556;28;20119;-72
2022/07/29 00:31:34;;;;;;;8.68;5.88;;;;;;;20.91;64.55;98877.00;5189285;28;20057;-71
2022/07/29 00:37:34;;;;;;;7.53;6.05;;;;;;;20.79;64.43;98862.53;5189213;28;20530;-71
2022/07/29 00:40:24;;;;;;;9.20;6.45;;;;;;;20.94;64.17;98879.25;5203423;28;20053;-71
2022/07/29 00:43:16;;;;;;;10.80;6.47;;;;;;;20.71;64.37;98877.06;5202693;28;20517;-72
2022/07/29 00:46:06;;;;;;;12.63;7.55;;;;;;;20.62;64.75;98884.53;5203099;28;20488;-71
2022/07/29 00:48:57;;;;;;;8.98;6.43;;;;;;;20.56;64.61;98869.25;5203020;28;20140;-71
2022/07/29 00:51:48;;;;;;;9.70;7.00;;;;;;;20.80;64.46;98883.06;5189616;28;20100;-72
2022/07/29 00:54:39;;;;;;;11.07;6.88;;;;;;;20.58;64.63;98877.09;5202338;28;20175;-73
2022/07/29 00:57:35;;;;;;;8.77;6.68;;;;;;;20.36;65.80;98868.41;5203147;28;20056;-73
2022/07/29 01:00:27;;;;;;;10.05;6.68;;;;;;;20.46;65.08;98876.06;5202351;28;20813;-71
2022/07/29 01:03:18;;;;;;;8.95;6.68;;;;;;;20.07;66.05;98856.25;5202877;28;20056;-71
2022/07/29 01:06:09;;;;;;;10.30;6.90;;;;;;;20.39;65.57;98873.38;5202754;28;20045;-72
2022/07/29 01:09:00;;;;;;;12.00;6.60;;;;;;;20.49;65.30;98871.06;5202618;28;20132;-71
2022/07/29 01:11:50;;;;;;;11.35;6.65;;;;;;;20.56;64.90;98869.25;5201232;28;20049;-71
2022/07/29 01:14:42;;;;;;;8.30;7.15;;;;;;;20.37;65.59;98864.69;5202129;28;20541;-73
2022/07/29 01:17:38;;;;;;;8.98;7.10;;;;;;;20.33;65.44;98868.81;5201105;28;20060;-71
2022/07/29 01:21:19;;;;;;;9.90;6.80;;;;;;;20.30;65.54;98869.28;5202533;28;20063;-71
2022/07/29 01:24:15;;;;;;;11.07;6.65;;;;;;;20.47;65.01;98862.41;5130906;28;20502;-72
2022/07/29 01:27:22;;;;;;;11.90;7.18;;;;;;;20.05;65.90;98871.78;5202548;28;20179;-72
2022/07/29 01:30:13;;;;;;;9.68;7.35;;;;;;;20.00;66.18;98858.94;5202439;28;20056;-71
2022/07/29 01:33:11;;;;;;;10.45;7.32;;;;;;;19.91;66.51;98868.25;5202158;28;20067;-72
2022/07/29 01:36:37;;;;;;;13.70;7.45;;;;;;;20.10;66.31;98867.44;5202455;28;20045;-71
2022/07/29 01:39:31;;;;;;;8.95;7.18;;;;;;;20.23;65.76;98861.22;5188678;28;20049;-72
2022/07/29 01:42:28;;;;;;;10.57;7.95;;;;;;;20.04;65.94;98857.50;5201587;28;20097;-72
2022/07/29 01:45:25;;;;;;;10.10;7.70;;;;;;;20.09;65.45;98863.06;5202338;28;20515;-72
2022/07/29 01:48:22;;;;;;;9.02;6.72;;;;;;;19.94;65.98;98849.00;5201348;28;20103;-73
2022/07/29 01:51:26;;;;;;;14.57;7.13;;;;;;;20.22;65.23;98856.84;5195175;28;20075;-71
2022/07/29 01:54:24;;;;;;;11.05;7.45;;;;;;;19.95;65.41;98850.66;5201367;28;20053;-73
2022/07/29 01:57:19;;;;;;;11.85;7.15;;;;;;;19.64;66.79;98846.72;5201159;28;20518;-72
2022/07/29 02:00:10;;;;;;;11.00;7.40;;;;;;;19.69;66.13;98846.91;5200999;28;20145;-72
2022/07/29 02:03:03;;;;;;;9.88;7.13;;;;;;;19.60;65.66;98858.91;5201867;28;20495;-71
2022/07/29 02:05:56;;;;;;;12.75;7.60;;;;;;;19.57;67.06;98853.94;5202075;28;20056;-71
2022/07/29 02:08:49;;;;;;;11.68;7.05;;;;;;;19.63;66.66;98858.50;5202118;28;20083;-71
2022/07/29 02:11:42;;;;;;;10.43;6.68;;;;;;;19.65;66.78;98843.00;5200910;28;20055;-74
2022/07/29 02:14:44;;;;;;;8.40;7.00;;;;;;;19.55;66.81;98845.22;5201003;28;20507;-71
2022/07/29 02:17:51;;;;;;;11.15;7.35;;;;;;;19.51;66.81;98845.84;5201004;28;20055;-71
2022/07/29 02:20:48;;;;;;;13.27;7.15;;;;;;;19.35;67.75;98855.94;5201405;28;20075;-73
2022/07/29 02:23:39;;;;;;;12.98;6.90;;;;;;;19.54;67.33;98864.28;5201732;28;20526;-72
2022/07/29 02:26:42;;;;;;;12.57;7.45;;;;;;;19.62;67.02;98853.31;5201422;28;20068;-71
2022/07/29 02:29:35;;;;;;;14.50;7.68;;;;;;;19.43;67.11;98855.75;5201392;28;20057;-72
2022/07/29 02:32:27;;;;;;;11.65;6.80;;;;;;;19.55;66.62;98855.16;5201420;28;20057;-72
2022/07/29 02:35:19;;;;;;;13.35;7.38;;;;;;;19.42;66.65;98848.72;5201481;28;20088;-72
2022/07/29 02:41:37;;;;;;;10.25;7.03;;;;;;;19.20;67.28;98849.91;5200977;28;20150;-73
2022/07/29 02:44:27;;;;;;;10.98;7.22;;;;;;;19.39;66.95;98851.81;5204395;28;20115;-71
2022/07/29 02:47:32;;;;;;;14.70;8.20;;;;;;;19.24;66.84;98848.50;5204677;28;20068;-71
2022/07/29 02:50:39;;;;;;;10.65;7.75;;;;;;;19.05;67.04;98850.09;5204819;28;20057;-71
2022/07/29 02:53:32;;;;;;;9.80;6.85;;;;;;;18.95;67.24;98852.31;5205809;28;20065;-73
2022/07/29 02:56:29;;;;;;;8.32;6.78;;;;;;;18.95;68.26;98849.66;5205041;28;20526;-74
2022/07/29 02:59:24;;;;;;;9.07;7.75;;;;;;;18.98;68.85;98854.63;5205556;28;20488;-71
2022/07/29 03:02:16;;;;;;;9.05;7.72;;;;;;;19.16;68.71;98857.56;5200903;28;20112;-72
2022/07/29 03:05:10;;;;;;;10.90;7.70;;;;;;;19.27;67.93;98850.78;5191284;28;20187;-71
2022/07/29 03:08:04;;;;;;;11.10;7.63;;;;;;;19.28;67.71;98851.59;5204054;28;20139;-73
2022/07/29 03:10:55;;;;;;;10.90;8.35;;;;;;;19.51;67.46;98845.84;5204847;28;20069;-72
2022/07/29 03:13:46;;;;;;;11.77;7.75;;;;;;;19.54;66.82;98854.34;5205010;28;20138;-71
2022/07/29 03:16:36;;;;;;;14.90;8.32;;;;;;;19.31;67.61;98856.56;5204555;28;20049;-71
2022/07/29 03:19:31;;;;;;;12.70;8.13;;;;;;;19.34;67.28;98848.09;5205164;28;20419;-71
2022/07/29 03:22:21;;;;;;;10.65;7.70;;;;;;;19.24;67.33;98857.38;5204492;28;20653;-73
2022/07/29 03:25:17;;;;;;;11.52;6.85;;;;;;;19.10;67.13;98852.97;5205088;28;20045;-73
2022/07/29 03:28:08;;;;;;;9.65;7.03;;;;;;;18.99;67.18;98853.56;5204667;28;20489;-75
2022/07/29 03:30:58;;;;;;;9.40;6.95;;;;;;;19.04;67.99;98861.03;5204072;28;20506;-71
2022/07/29 03:33:48;;;;;;;11.45;7.78;;;;;;;19.12;68.17;98853.63;5204634;28;20080;-71
2022/07/29 03:36:39;;;;;;;13.27;8.52;;;;;;;19.06;69.98;98853.59;5204437;28;20412;-71
2022/07/29 03:39:38;;;;;;;14.05;8.32;;;;;;;19.08;69.23;98847.00;5204932;28;20491;-71
2022/07/29 03:42:32;;;;;;;11.02;8.65;;;;;;;19.20;68.80;98857.97;5204151;28;20060;-71
2022/07/29 03:45:25;;;;;;;15.50;8.82;;;;;;;19.22;68.60;98861.28;5204007;28;20116;-71
2022/07/29 03:48:19;;;;;;;12.75;8.38;;;;;;;19.15;68.83;98861.28;5216969;28;20103;-72
2022/07/29 03:51:09;;;;;;;12.95;8.27;;;;;;;19.32;68.35;98863.59;5203538;28;20421;-72
2022/07/29 03:54:01;;;;;;;9.70;7.55;;;;;;;19.18;68.38;98868.94;5204162;28;20056;-71
2022/07/29 03:57:05;;;;;;;14.83;8.60;;;;;;;19.25;68.28;98847.44;5203257;28;20214;-72
2022/07/29 03:59:57;;;;;;;15.85;9.15;;;;;;;19.41;67.93;98862.38;5204052;28;20057;-71
2022/07/29 04:02:48;;;;;;;12.30;8.73;;;;;;;19.56;67.92;98862.19;5203665;28;20045;-73
2022/07/29 04:05:39;;;;;;;13.23;9.15;;;;;;;19.45;68.25;98828.66;5204058;28;20056;-71
2022/07/29 04:08:29;;;;;;;14.10;8.90;;;;;;;19.58;67.83;98855.56;5203997;28;20125;-71
2022/07/29 04:11:19;;;;;;;16.13;8.90;;;;;;;19.66;68.30;98851.88;5203372;28;20054;-72
2022/07/29 04:14:10;;;;;;;15.30;9.13;;;;;;;19.62;68.17;98856.00;5203870;28;20515;-71
2022/07/29 04:17:02;;;;;;;13.00;8.50;;;;;;;19.63;67.21;98866.56;5190510;28;20049;-71
2022/07/29 04:19:52;;;;;;;13.15;8.10;;;;;;;19.65;68.17;98861.81;5203052;28;20132;-71
2022/07/29 04:22:42;;;;;;;12.80;8.85;;;;;;;19.74;67.91;98864.31;5203508;28;20119;-71
2022/07/29 04:25:37;;;;;;;12.40;8.55;;;;;;;19.78;67.90;98866.38;5203498;28;20139;-72
2022/07/29 04:28:27;;;;;;;13.40;9.32;;;;;;;19.62;67.91;98840.69;5203636;28;20053;-73
2022/07/29 04:31:17;;;;;;;13.57;9.27;;;;;;;19.73;67.98;98862.66;5203309;28;20567;-73
2022/07/29 04:34:14;;;;;;;14.00;9.48;;;;;;;19.97;66.69;98869.28;5203839;28;20350;-71
2022/07/29 04:37:04;;;;;;;14.30;9.40;;;;;;;19.81;66.79;98854.38;5203594;28;20060;-71
2022/07/29 04:39:54;;;;;;;13.40;9.45;;;;;;;19.90;67.23;98869.28;5203554;28;20049;-71
2022/07/29 04:42:45;;;;;;;12.82;10.02;;;;;;;19.97;66.64;98864.75;5203258;28;20056;-71
2022/07/29 04:45:36;;;;;;;15.15;9.10;;;;;;;19.82;66.40;98853.34;5203068;28;20056;-70
2022/07/29 04:48:27;;;;;;;14.45;9.35;;;;;;;19.74;66.98;98859.78;5203366;28;20383;-71
2022/07/29 04:51:18;;;;;;;11.80;8.55;;;;;;;19.88;66.91;98874.88;5192150;28;20463;-71
2022/07/29 04:54:08;;;;;;;16.27;9.50;;;;;;;19.99;66.85;98868.03;5202822;28;20421;-71
2022/07/29 04:56:58;;;;;;;14.30;10.20;;;;;;;20.11;66.66;98873.63;5174012;28;21091;-71
2022/07/29 04:59:49;;;;;;;14.38;8.90;;;;;;;19.95;67.25;98854.16;5182391;28;20085;-71
2022/07/29 05:02:39;;;;;;;14.25;9.00;;;;;;;20.08;67.28;98866.78;5199177;28;20060;-72
2022/07/29 05:05:29;;;;;;;12.48;8.88;;;;;;;20.43;66.55;98861.16;5172985;28;20095;-73
2022/07/29 05:08:20;;;;;;;14.73;9.65;;;;;;;20.02;67.64;98862.25;5169521;28;20057;-71
2022/07/29 05:11:10;;;;;;;13.50;9.25;;;;;;;20.19;67.40;98868.84;5164795;28;20054;-71
2022/07/29 05:14:02;;;;;;;12.88;9.38;;;;;;;20.25;67.61;98871.75;5184232;28;20136;-73
2022/07/29 05:16:56;;;;;;;12.07;9.52;;;;;;;20.21;67.80;98873.22;5166347;28;20043;-73
2022/07/29 05:19:46;;;;;;;12.18;9.82;;;;;;;20.38;67.51;98875.25;5179398;28;20057;-75
2022/07/29 05:22:36;;;;;;;15.88;10.00;;;;;;;20.36;67.06;98876.47;5176343;28;20049;-72
2022/07/29 05:25:28;;;;;;;12.88;9.95;;;;;;;20.37;67.43;98870.09;5171243;28;20069;-73
2022/07/29 05:28:34;;;;;;;16.83;10.07;;;;;;;20.56;67.07;98879.16;5169211;28;20199;-72
2022/07/29 05:31:25;;;;;;;13.10;10.43;;;;;;;20.61;66.88;98882.88;5176728;28;20509;-72
2022/07/29 05:34:15;;;;;;;16.63;10.70;;;;;;;20.67;66.71;98867.75;5176541;28;20073;-71
2022/07/29 05:37:06;;;;;;;12.98;11.18;;;;;;;20.83;66.56;98875.38;5177731;28;20152;-71
2022/07/29 05:39:56;;;;;;;15.45;10.27;;;;;;;20.88;66.71;98872.03;5172237;28;20075;-73
2022/07/29 05:42:48;;;;;;;12.82;10.10;;;;;;;21.16;65.79;98882.50;5166702;28;20057;-71
2022/07/29 05:45:39;;;;;;;16.00;11.55;;;;;;;21.41;64.66;98887.97;5163065;28;20050;-72
2022/07/29 05:48:39;;;;;;;17.33;10.23;;;;;;;21.31;65.36;98885.72;5172288;28;20057;-73
2022/07/29 05:51:30;;;;;;;13.20;10.07;;;;;;;21.40;65.29;98888.22;5172945;28;20072;-74
2022/07/29 05:54:20;;;;;;;14.68;9.95;;;;;;;21.41;65.19;98901.47;5178158;28;20116;-71
2022/07/29 05:57:22;;;;;;;19.75;9.43;;;;;;;21.55;65.01;98889.53;5169066;28;20075;-71
2022/07/29 06:00:13;;;;;;;15.82;10.15;;;;;;;21.86;64.77;98904.09;5177940;28;20178;-71
2022/07/29 06:03:03;;;;;;;15.75;10.05;;;;;;;21.68;65.17;98904.00;5165634;28;20515;-71
2022/07/29 06:05:54;;;;;;;12.95;8.77;;;;;;;22.08;63.70;98903.69;5167545;28;20183;-73
2022/07/29 06:08:44;;;;;;;13.98;9.02;;;;;;;21.91;63.97;98895.31;5163481;28;20057;-73
2022/07/29 06:11:35;;;;;;;14.95;8.75;;;;;;;21.94;63.34;98901.09;5179968;28;20563;-71
2022/07/29 06:14:29;;;;;;;16.05;9.13;;;;;;;21.87;64.19;98878.75;5169705;28;20061;-72
2022/07/29 06:17:19;;;;;;;12.52;8.65;;;;;;;22.30;63.42;98913.09;5169955;28;20045;-73
2022/07/29 06:20:10;;;;;;;11.63;7.40;;;;;;;22.42;63.16;98911.34;5172443;28;20109;-72
2022/07/29 06:23:04;;;;;;;13.15;7.50;;;;;;;22.44;62.95;98914.63;5177124;28;20042;-71
2022/07/29 06:25:54;;;;;;;17.17;7.55;;;;;;;22.83;62.28;98922.56;5179406;28;20053;-71
2022/07/29 06:28:44;;;;;;;8.60;6.43;;;;;;;22.94;61.50;98919.94;5173520;28;20674;-71
2022/07/29 06:31:35;;;;;;;13.15;6.70;;;;;;;23.10;61.65;98917.69;5168556;28;20720;-74
2022/07/29 06:34:25;;;;;;;12.10;7.10;;;;;;;23.35;59.81;98913.00;5175859;28;20438;-73
2022/07/29 06:37:16;;;;;;;9.68;6.50;;;;;;;23.40;60.28;98917.72;5178326;28;20053;-74
2022/07/29 06:43:15;;;;;;;13.02;6.60;;;;;;;23.71;58.86;98932.09;5173650;28;20522;-72
2022/07/29 06:46:08;;;;;;;6.50;5.35;;;;;;;23.64;59.88;98924.91;5175492;28;20057;-74
2022/07/29 06:48:58;;;;;;;8.43;5.78;;;;;;;23.75;59.12;98928.72;5169800;28;20056;-74
2022/07/29 06:51:48;;;;;;;9.57;6.18;;;;;;;23.83;59.14;98909.41;5170623;28;20274;-72
2022/07/29 06:54:39;;;;;;;5.57;4.90;;;;;;;24.28;56.48;98930.59;5181171;28;20562;-70
2022/07/29 06:57:29;;;;;;;7.40;5.90;;;;;;;24.23;57.19;98921.50;5181267;28;20049;-70
2022/07/29 07:00:20;;;;;;;10.77;5.78;;;;;;;24.23;57.04;98943.19;5176979;28;20111;-70
2022/07/29 07:03:11;;;;;;;6.63;4.97;;;;;;;24.13;58.36;98933.72;5172198;28;20067;-73
2022/07/29 07:06:00;;;;;;;8.75;5.75;;;;;;;24.37;56.87;98939.19;5169439;28;20049;-76
2022/07/29 07:08:51;;;;;;;6.10;5.00;;;;;;;24.45;56.80;98930.75;5180718;28;20073;-69
2022/07/29 07:11:41;;;;;;;6.78;5.47;;;;;;;24.48;57.87;98937.59;5180088;28;20061;-71
2022/07/29 07:14:31;;;;;;;10.20;5.20;;;;;;;24.78;58.13;98934.75;5176174;28;20060;-70
2022/07/29 07:17:22;;;;;;;6.63;5.30;;;;;;;25.18;54.99;98932.09;5192910;28;20435;-71
2022/07/29 07:20:11;;;;;;;10.75;5.38;;;;;;;25.21;55.50;98934.34;5208534;28;20095;-72
2022/07/29 07:23:02;;;;;;;6.47;5.07;;;;;;;25.26;55.25;98934.41;5191086;28;20111;-76
2022/07/29 07:25:52;;;;;;;7.85;5.30;;;;;;;26.41;54.02;98929.69;5182236;28;20089;-72
2022/07/29 07:28:43;;;;;;;4.63;4.20;;;;;;;27.29;49.59;98938.03;5188141;28;20049;-71
2022/07/29 07:31:33;;;;;;;5.63;4.07;;;;;;;26.84;49.46;98940.94;5203245;28;20091;-70
2022/07/29 07:34:23;;;;;;;8.18;4.90;;;;;;;27.24;50.12;98945.31;5180533;28;20061;-72
2022/07/29 07:37:20;;;;;;;5.80;4.30;;;;;;;27.93;48.86;98942.81;5194519;28;20515;-73
2022/07/29 07:40:12;;;;;;;6.85;4.15;;;;;;;28.04;48.16;98946.44;5201952;28;20095;-73
2022/07/29 07:43:07;;;;;;;5.65;4.03;;;;;;;28.68;46.59;98945.63;5191444;28;20060;-76
2022/07/29 07:45:57;;;;;;;10.63;4.13;;;;;;;28.36;46.70;98943.72;5194228;28;20057;-73
2022/07/29 07:48:48;;;;;;;4.32;3.65;;;;;;;28.98;45.76;98940.31;5198837;28;20500;-70
2022/07/29 07:51:38;;;;;;;9.70;3.80;;;;;;;29.09;44.90;98932.22;5202144;28;20099;-73
2022/07/29 07:54:29;;;;;;;7.35;3.83;;;;;;;29.55;43.53;98937.84;5176196;28;20046;-71
2022/07/29 07:57:19;;;;;;;5.45;3.80;;;;;;;29.17;43.62;98934.41;5196546;28;20668;-74
2022/07/29 08:00:09;;;;;;;5.93;4.07;;;;;;;29.32;44.32;98926.31;5197458;28;20416;-75
2022/07/29 08:03:03;;;;;;;5.20;4.20;;;;;;;28.44;45.86;98937.81;5187986;28;20057;-73
2022/07/29 08:06:06;;;;;;;5.85;4.10;;;;;;;28.31;45.91;98936.34;5184441;28;20558;-73
2022/07/29 08:08:56;;;;;;;11.15;3.95;;;;;;;28.29;46.02;98941.22;5201466;28;20052;-70
2022/07/29 08:12:07;;;;;;;5.80;4.00;;;;;;;27.65;46.70;98941.16;5200679;28;20056;-72
2022/07/29 08:14:57;;;;;;;5.68;4.15;;;;;;;27.75;45.04;98946.72;5178378;28;20130;-71
2022/07/29 08:17:47;;;;;;;4.70;3.72;;;;;;;27.75;46.95;98944.00;5194217;28;20045;-73
2022/07/29 08:20:38;;;;;;;5.63;3.90;;;;;;;28.66;43.63;98939.59;5195816;28;20077;-71
2022/07/29 08:23:34;;;;;;;5.45;4.05;;;;;;;29.07;43.71;98942.56;5182041;28;20067;-76
2022/07/29 08:26:39;;;;;;;8.18;3.75;;;;;;;29.31;45.11;98940.25;5196889;28;20072;-71
2022/07/29 08:29:29;;;;;;;5.90;4.00;;;;;;;30.10;43.05;98947.22;5196728;28;20135;-73
2022/07/29 08:32:20;;;;;;;5.68;3.97;;;;;;;29.80;42.39;98943.41;5202319;28;20646;-75
2022/07/29 08:35:30;;;;;;;5.78;4.40;;;;;;;28.45;46.15;98944.09;5172396;28;20095;-76
2022/07/29 08:38:28;;;;;;;9.82;4.53;;;;;;;29.22;44.50;98934.47;5191861;28;20068;-71
2022/07/29 08:41:19;;;;;;;6.47;4.22;;;;;;;28.70;44.59;98932.53;5200953;28;20478;-75
2022/07/29 08:44:10;;;;;;;8.90;4.18;;;;;;;29.16;45.54;98944.53;5175343;28;20974;-71
2022/07/29 08:47:01;;;;;;;7.70;4.30;;;;;;;28.66;44.26;98934.97;5201121;28;20052;-79
2022/07/29 08:49:51;;;;;;;7.68;4.32;;;;;;;29.83;41.80;98934.63;5202236;28;20424;-71
2022/07/29 08:52:41;;;;;;;6.35;4.22;;;;;;;31.20;39.72;98915.63;5198021;28;20056;-76
2022/07/29 08:55:32;;;;;;;5.40;3.88;;;;;;;31.79;38.12;98939.44;5191614;28;20412;-71
2022/07/29 08:58:23;;;;;;;8.43;4.22;;;;;;;31.28;39.84;98932.28;5186756;28;20076;-71
2022/07/29 09:01:21;;;;;;;7.75;4.00;;;;;;;31.35;40.21;98938.28;5201650;28;20052;-71
2022/07/29 09:04:27;;;;;;;6.13;4.00;;;;;;;32.02;38.78;98926.94;5172447;28;20100;-73
2022/07/29 09:07:18;;;;;;;6.43;3.72;;;;;;;32.60;36.35;98932.50;5198139;28;20676;-73
2022/07/29 09:10:09;;;;;;;5.65;4.20;;;;;;;31.70;34.76;98938.41;5196517;28;20057;-72
2022/07/29 09:12:59;;;;;;;7.47;4.45;;;;;;;31.21;37.11;98939.97;5189557;28;20127;-76
2022/07/29 09:15:49;;;;;;;6.28;4.00;;;;;;;31.85;35.98;98945.69;5185523;28;20523;-75
2022/07/29 09:18:42;;;;;;;4.97;3.60;;;;;;;32.82;34.78;98928.44;5200046;28;20067;-77
2022/07/29 09:21:58;;;;;;;6.88;3.65;;;;;;;32.90;34.93;98930.53;5198801;28;20057;-76
2022/07/29 09:24:50;;;;;;;4.47;3.72;;;;;;;32.16;36.48;98932.59;5175797;28;20100;-73
2022/07/29 09:27:40;;;;;;;8.05;4.03;;;;;;;32.15;35.07;98929.03;5208455;28;20054;-75
2022/07/29 09:30:31;;;;;;;7.03;4.50;;;;;;;31.33;35.47;98935.03;5200464;28;20049;-72
2022/07/29 09:33:23;;;;;;;11.57;3.63;;;;;;;32.28;37.12;98936.63;5182154;28;20076;-78
2022/07/29 09:36:13;;;;;;;9.90;3.72;;;;;;;32.41;35.31;98931.53;5186883;28;20131;-74
2022/07/29 09:39:03;;;;;;;6.47;3.88;;;;;;;31.98;36.71;98934.09;5198821;28;20052;-74
2022/07/29 09:41:55;;;;;;;5.05;3.90;;;;;;;32.56;35.06;98925.13;5184502;28;20056;-78
2022/07/29 09:44:49;;;;;;;5.35;4.03;;;;;;;32.67;34.41;98929.41;5171063;28;20128;-72
2022/07/29 09:47:48;;;;;;;6.47;4.50;;;;;;;31.63;37.49;98922.25;5192885;28;20060;-73
2022/07/29 09:50:41;;;;;;;8.18;4.40;;;;;;;31.03;37.50;98918.72;5185381;28;20187;-73
2022/07/29 09:53:33;;;;;;;9.65;4.32;;;;;;;30.82;37.98;98921.50;5185132;28;20208;-74
2022/07/29 09:56:41;;;;;;;8.25;4.82;;;;;;;31.17;36.91;98917.00;5166818;28;20080;-72
2022/07/29 09:59:32;;;;;;;5.30;3.83;;;;;;;32.22;33.89;98913.06;5175052;28;20053;-74
2022/07/29 10:02:27;;;;;;;4.82;3.35;;;;;;;32.86;33.87;98911.06;5173535;28;20061;-73
2022/07/29 10:05:19;;;;;;;7.47;3.67;;;;;;;32.52;34.36;98916.66;5172262;28;20068;-72
2022/07/29 10:08:12;;;;;;;10.05;4.13;;;;;;;32.47;33.20;98916.69;5172994;28;20154;-73
2022/07/29 10:11:17;;;;;;;4.78;3.80;;;;;;;32.48;33.43;98912.84;5178258;28;20672;-73
2022/07/29 10:14:07;;;;;;;8.30;3.50;;;;;;;30.99;35.95;98920.34;5179190;28;20068;-73
2022/07/29 10:17:00;;;;;;;4.72;3.90;;;;;;;31.28;35.51;98913.09;5184278;28;20543;-73
2022/07/29 10:19:50;;;;;;;5.75;3.78;;;;;;;31.45;35.72;98910.03;5188000;28;20485;-73
2022/07/29 10:22:41;;;;;;;9.65;3.95;;;;;;;31.54;35.05;98908.31;5183636;28;20495;-72
2022/07/29 10:25:47;;;;;;;5.68;3.92;;;;;;;32.45;34.86;98908.78;5182577;28;20057;-73
2022/07/29 10:28:37;;;;;;;5.78;3.70;;;;;;;31.82;35.73;98912.28;5206699;28;20064;-73
2022/07/29 10:31:42;;;;;;;5.40;4.20;;;;;;;31.25;34.90;98875.31;5189637;28;20049;-73
2022/07/29 10:34:54;;;;;;;14.55;5.07;;;;;;;30.86;35.64;98897.97;5185586;28;20138;-73
2022/07/29 10:38:18;;;;;;;6.28;3.60;;;;;;;30.58;34.44;98884.88;5192812;28;20052;-72
2022/07/29 10:41:26;;;;;;;;;;;;;;;30.99;34.65;98901.19;5175227;28;20124;-72
2022/07/29 10:44:23;;;;;;;5.95;3.80;;;;;;;31.00;34.99;98894.63;5178367;28;20254;-73
2022/07/29 10:47:25;;;;;;;7.65;4.20;;;;;;;29.98;35.90;98895.56;5178415;28;20100;-73
2022/07/29 10:50:15;;;;;;;5.18;3.45;;;;;;;30.50;37.19;98890.88;5170180;28;20061;-72
2022/07/29 10:53:06;;;;;;;7.20;4.20;;;;;;;29.76;37.51;98895.00;5181918;28;20060;-73
2022/07/29 10:55:58;;;;;;;8.57;4.43;;;;;;;28.89;37.47;98878.31;5179955;28;20355;-73
2022/07/29 10:59:17;;;;;;;9.07;4.05;;;;;;;29.60;38.71;98889.50;5174609;28;20046;-73
2022/07/29 11:02:32;;;;;;;5.60;3.90;;;;;;;29.50;36.96;98889.47;5172591;28;20050;-72
2022/07/29 11:05:55;;;;;;;5.97;3.65;;;;;;;29.17;37.07;98879.81;5179142;28;20056;-73
2022/07/29 11:09:15;;;;;;;7.40;3.97;;;;;;;29.39;38.75;98877.69;5181307;28;20065;-73
2022/07/29 11:12:37;;;;;;;4.25;3.42;;;;;;;29.38;38.52;98877.97;5177251;28;20097;-72
2022/07/29 11:15:30;;;;;;;6.70;3.97;;;;;;;29.22;38.38;98879.84;5183706;28;20496;-73
2022/07/29 11:18:21;;;;;;;10.77;4.18;;;;;;;29.05;39.38;98866.41;5182982;28;20907;-73
2022/07/29 11:21:36;;;;;;;6.47;3.85;;;;;;;29.03;36.31;98868.59;5175318;28;20104;-73
2022/07/29 11:24:44;;;;;;;7.55;3.10;;;;;;;29.24;36.92;98862.13;5178864;28;20048;-72
2022/07/29 11:27:39;;;;;;;6.38;3.17;;;;;;;29.36;37.11;98869.22;5175070;28;20507;-75
2022/07/29 11:30:48;;;;;;;4.07;2.95;;;;;;;28.95;36.18;98860.88;5170923;28;20122;-72
2022/07/29 11:33:39;;;;;;;3.55;3.05;;;;;;;29.24;37.41;98872.22;5167793;28;20068;-75
2022/07/29 11:37:13;;;;;;;5.68;3.85;;;;;;;29.28;36.89;98884.25;5171318;28;20057;-76
2022/07/29 11:40:04;;;;;;;6.10;3.30;;;;;;;29.87;36.33;98888.47;5177257;28;20199;-76
2022/07/29 11:42:54;;;;;;;7.97;3.50;;;;;;;29.96;36.47;98878.59;5168587;28;20138;-76
2022/07/29 11:45:46;;;;;;;5.35;2.90;;;;;;;30.38;35.19;98886.53;5169271;28;20085;-73
2022/07/29 11:48:42;;;;;;;6.97;3.10;;;;;;;30.54;36.28;98870.09;5169246;28;20483;-74
2022/07/29 11:51:37;;;;;;;5.15;3.20;;;;;;;30.87;34.21;98872.22;5171692;28;20922;-76
2022/07/29 11:54:41;;;;;;;7.75;3.53;;;;;;;30.98;32.22;98870.25;5170244;28;20401;-72
2022/07/29 11:57:54;;;;;;;8.20;3.55;;;;;;;30.65;33.86;98855.28;5167777;28;20057;-73
2022/07/29 12:00:53;;;;;;;7.80;3.80;;;;;;;30.82;33.04;98861.25;5187915;28;20075;-73
2022/07/29 12:03:45;;;;;;;5.82;3.10;;;;;;;31.23;31.94;98850.13;5185605;28;20045;-74
2022/07/29 12:06:36;;;;;;;6.93;3.50;;;;;;;31.10;34.29;98867.19;5178397;28;20052;-75
2022/07/29 12:09:27;;;;;;;5.63;3.95;;;;;;;30.41;37.32;98866.03;5197488;28;20053;-73
2022/07/29 12:12:29;;;;;;;8.40;4.05;;;;;;;29.98;39.83;98864.69;5202374;28;20567;-73
2022/07/29 12:15:20;;;;;;;8.90;5.10;;;;;;;29.49;41.47;98865.97;5194968;28;20107;-73
2022/07/29 12:18:22;;;;;;;6.65;4.32;;;;;;;29.26;41.41;98870.84;5203374;28;20052;-73
2022/07/29 12:21:13;;;;;;;10.35;4.95;;;;;;;28.89;42.82;98868.22;5202184;28;20050;-75
2022/07/29 12:24:04;;;;;;;7.32;4.20;;;;;;;29.42;41.38;98863.50;5203982;28;20083;-75
2022/07/29 12:26:59;;;;;;;7.95;4.43;;;;;;;29.49;41.52;98861.31;5197504;28;20190;-73
2022/07/29 12:30:02;;;;;;;6.07;4.50;;;;;;;29.74;41.49;98867.97;5202872;28;20078;-73
2022/07/29 12:32:52;;;;;;;8.63;4.60;;;;;;;30.07;40.35;98866.59;5184507;28;20064;-70
2022/07/29 12:35:45;;;;;;;8.50;4.25;;;;;;;29.91;40.18;98868.50;5201370;28;20065;-71
2022/07/29 12:38:52;;;;;;;5.43;3.90;;;;;;;29.60;40.38;98875.03;5201597;28;20041;-73
2022/07/29 12:41:45;;;;;;;7.90;4.68;;;;;;;29.60;40.19;98859.47;5200203;28;20052;-71
2022/07/29 12:44:46;;;;;;;9.90;4.45;;;;;;;28.70;41.38;98856.13;5201899;28;20059;-71
2022/07/29 12:47:52;;;;;;;10.88;5.00;;;;;;;28.74;41.74;98854.50;5202344;28;20047;-72
2022/07/29 12:50:53;;;;;;;7.53;4.30;;;;;;;28.37;41.54;98862.75;5200108;28;20560;-72
2022/07/29 12:54:03;;;;;;;6.38;4.03;;;;;;;28.52;42.06;98868.31;5199603;28;20419;-73
2022/07/29 12:56:59;;;;;;;5.15;3.80;;;;;;;28.70;41.74;98872.50;5201785;28;20147;-73
2022/07/29 13:00:12;;;;;;;4.70;3.75;;;;;;;29.24;40.00;98864.84;5198529;28;20096;-77
2022/07/29 13:03:03;;;;;;;8.05;3.83;;;;;;;29.24;40.03;98853.09;5201388;28;20060;-76
2022/07/29 13:05:56;;;;;;;4.35;3.30;;;;;;;28.94;39.36;98843.69;5196786;28;20524;-77
2022/07/29 13:09:08;;;;;;;4.40;3.15;;;;;;;29.74;38.04;98878.91;5211289;28;20083;-72
2022/07/29 13:12:06;;;;;;;5.95;3.40;;;;;;;29.80;38.00;98880.53;5200936;28;20056;-74
2022/07/29 13:14:56;;;;;;;6.50;3.38;;;;;;;29.58;38.22;98885.41;5200588;28;20065;-72
2022/07/29 13:17:46;;;;;;;4.38;3.15;;;;;;;29.73;36.95;98890.91;5200777;28;20528;-71
2022/07/29 13:20:37;;;;;;;4.65;3.17;;;;;;;29.32;38.68;98893.53;5200875;28;20068;-72
2022/07/29 13:23:27;;;;;;;6.70;3.60;;;;;;;29.16;38.97;98889.91;5202048;28;20626;-73
2022/07/29 13:26:19;;;;;;;6.13;3.28;;;;;;;28.99;39.33;98894.75;5202512;28;20046;-73
2022/07/29 13:29:09;;;;;;;8.23;4.20;;;;;;;28.97;39.02;98895.03;5200919;28;20052;-74
2022/07/29 13:32:00;;;;;;;6.70;3.60;;;;;;;29.03;39.18;98891.22;5194698;28;20056;-73
2022/07/29 13:34:51;;;;;;;5.57;3.40;;;;;;;28.73;39.44;98891.06;5194424;28;20057;-72
2022/07/29 13:37:41;;;;;;;6.70;3.67;;;;;;;28.59;39.74;98890.72;5213587;28;20048;-73
2022/07/29 13:40:33;;;;;;;5.38;3.80;;;;;;;28.66;40.26;98895.94;5198447;28;20061;-72
2022/07/29 13:43:23;;;;;;;5.93;3.45;;;;;;;28.20;40.93;98892.88;5194681;28;20053;-72
2022/07/29 13:46:14;;;;;;;4.30;3.40;;;;;;;28.71;40.03;98877.72;5190499;28;20053;-72